createdAt,value
2022-08-05T00:02:26.617Z,18.96
2022-08-05T00:06:33.209Z,18.96
2022-08-05T00:10:35.363Z,18.95
2022-08-05T00:14:37.171Z,18.94
2022-08-05T00:18:40.021Z,18.91
2022-08-05T00:22:47.138Z,18.87
2022-08-05T00:27:04.746Z,18.84
2022-08-05T00:31:12.346Z,18.79
2022-08-05T00:35:13.989Z,18.76
2022-08-05T00:39:15.781Z,18.76
2022-08-05T00:43:18.368Z,18.71
2022-08-05T00:47:20.204Z,18.71
2022-08-05T00:51:50.775Z,18.68
2022-08-05T00:55:45.055Z,18.61
2022-08-05T00:59:48.635Z,18.57
2022-08-05T01:03:50.438Z,18.54
2022-08-05T01:08:42.651Z,18.53
2022-08-05T01:12:20.236Z,18.47
2022-08-05T01:16:29.155Z,18.47
2022-08-05T01:20:53.852Z,18.49
2022-08-05T01:25:13.642Z,18.46
2022-08-05T01:29:30.685Z,18.44
2022-08-05T01:33:38.902Z,18.42
2022-08-05T01:37:50.518Z,18.44
2022-08-05T01:41:57.852Z,18.46
2022-08-05T01:46:07.467Z,18.47
2022-08-05T01:50:28.587Z,18.44
2022-08-05T01:54:56.682Z,18.44
2022-08-05T01:59:00.650Z,18.45
2022-08-05T02:03:28.923Z,18.44
2022-08-05T02:07:34.937Z,18.41
2022-08-05T02:11:52.642Z,18.36
2022-08-05T02:16:16.683Z,18.31
2022-08-05T02:20:26.630Z,18.27
2022-08-05T02:24:34.089Z,18.22
2022-08-05T02:28:41.761Z,18.14
2022-08-05T02:32:51.135Z,18.07
2022-08-05T02:36:55.826Z,18.06
2022-08-05T02:40:58.537Z,17.99
2022-08-05T02:45:01.767Z,17.94
2022-08-05T02:49:05.858Z,17.90
2022-08-05T02:53:18.738Z,17.85
2022-08-05T02:58:11.047Z,17.81
2022-08-05T03:01:45.058Z,17.78
2022-08-05T03:06:56.473Z,17.77
2022-08-05T03:10:10.752Z,17.78
2022-08-05T03:14:14.937Z,17.77
2022-08-05T03:18:17.422Z,17.76
2022-08-05T03:22:32.136Z,17.73
2022-08-05T03:26:34.853Z,17.73
2022-08-05T03:30:38.319Z,17.71
2022-08-05T03:34:50.606Z,17.67
2022-08-05T03:38:53.465Z,17.65
2022-08-05T03:42:55.355Z,17.60
2022-08-05T03:46:57.125Z,17.56
2022-08-05T03:52:48.980Z,17.49
2022-08-05T03:56:05.608Z,17.47
2022-08-05T04:00:01.821Z,17.47
2022-08-05T04:04:10.295Z,17.44
2022-08-05T04:08:14.682Z,17.42
2022-08-05T04:12:33.154Z,17.39
2022-08-05T04:16:35.961Z,17.36
2022-08-05T04:20:37.650Z,17.35
2022-08-05T04:24:53.020Z,17.34
2022-08-05T04:28:54.803Z,17.34
2022-08-05T04:32:56.512Z,17.33
2022-08-05T04:36:58.110Z,17.30
2022-08-05T04:40:59.721Z,17.27
2022-08-05T04:45:05.620Z,17.23
2022-08-05T04:49:12.186Z,17.17
2022-08-05T04:53:18.402Z,17.13
2022-08-05T04:57:20.068Z,17.12
2022-08-05T05:02:05.511Z,17.11
2022-08-05T05:06:40.326Z,17.13
2022-08-05T05:10:06.669Z,17.22
2022-08-05T05:14:08.598Z,17.26
2022-08-05T05:18:14.192Z,17.32
2022-08-05T05:22:22.967Z,17.41
2022-08-05T05:26:28.335Z,17.49
2022-08-05T05:30:34.793Z,17.60
2022-08-05T05:34:36.378Z,17.72
2022-08-05T05:38:39.433Z,17.83
2022-08-05T05:42:47.079Z,17.92
2022-08-05T05:46:48.896Z,17.99
2022-08-05T05:50:52.934Z,18.07
2022-08-05T05:54:54.574Z,18.10
2022-08-05T05:58:56.201Z,18.17
2022-08-05T06:02:57.872Z,18.26
2022-08-05T06:07:01.643Z,18.26
2022-08-05T06:11:04.058Z,18.27
2022-08-05T06:15:07.986Z,18.24
2022-08-05T06:19:09.828Z,18.26
2022-08-05T06:23:14.139Z,18.31
2022-08-05T06:27:17.312Z,18.37
2022-08-05T06:31:38.545Z,18.47
2022-08-05T06:36:04.215Z,18.56
2022-08-05T06:40:05.883Z,18.60
2022-08-05T06:44:07.474Z,18.62
2022-08-05T06:48:36.309Z,18.65
2022-08-05T06:52:37.994Z,18.64
2022-08-05T06:56:39.972Z,18.63
2022-08-05T07:00:41.692Z,18.63
2022-08-05T07:04:43.614Z,18.71
2022-08-05T07:08:53.163Z,18.80
2022-08-05T07:13:15.220Z,18.88
2022-08-05T07:18:08.253Z,19.01
2022-08-05T07:21:59.801Z,19.20
2022-08-05T07:26:00.849Z,19.38
2022-08-05T07:30:28.478Z,19.50
2022-08-05T07:34:28.708Z,19.60
2022-08-05T07:38:33.757Z,19.71
2022-08-05T07:42:36.997Z,19.76
2022-08-05T07:46:38.698Z,19.69
2022-08-05T07:50:40.615Z,19.65
2022-08-05T07:54:49.092Z,19.59
2022-08-05T07:58:57.488Z,19.48
2022-08-05T08:03:14.807Z,19.44
2022-08-05T08:07:22.849Z,19.32
2022-08-05T08:11:27.713Z,19.24
2022-08-05T08:16:35.233Z,19.10
2022-08-05T08:20:21.994Z,18.99
2022-08-05T08:24:51.146Z,18.93
2022-08-05T08:28:59.240Z,18.91
2022-08-05T08:33:13.860Z,18.90
2022-08-05T08:37:21.077Z,18.92
2022-08-05T08:41:50.633Z,18.91
2022-08-05T08:45:55.711Z,18.93
2022-08-05T08:50:07.632Z,18.93
2022-08-05T08:54:21.053Z,18.92
2022-08-05T08:58:43.910Z,18.93
2022-08-05T09:02:46.552Z,18.95
2022-08-05T09:06:49.903Z,18.95
2022-08-05T09:10:51.927Z,18.92
2022-08-05T09:15:01.128Z,18.94
2022-08-05T09:19:08.953Z,19.00
2022-08-05T09:23:19.626Z,19.09
2022-08-05T09:28:05.906Z,19.14
2022-08-05T09:32:41.971Z,19.24
2022-08-05T09:36:55.823Z,19.21
2022-08-05T09:41:10.110Z,19.20
2022-08-05T09:45:17.426Z,19.22
2022-08-05T09:49:54.555Z,19.21
2022-08-05T09:53:59.302Z,19.14
2022-08-05T09:58:13.566Z,19.16
2022-08-05T10:02:30.963Z,19.13
2022-08-05T10:06:34.131Z,19.12
2022-08-05T10:10:48.164Z,19.06
2022-08-05T10:14:54.327Z,19.05
2022-08-05T10:18:56.752Z,19.08
2022-08-05T10:22:59.738Z,19.10
2022-08-05T10:27:01.688Z,19.13
2022-08-05T10:32:53.995Z,19.16
2022-08-05T10:35:33.782Z,19.22
2022-08-05T10:40:03.768Z,19.21
2022-08-05T10:44:11.494Z,19.16
2022-08-05T10:48:36.235Z,19.13
2022-08-05T10:52:58.555Z,19.16
2022-08-05T10:57:00.571Z,19.17
2022-08-05T11:01:07.225Z,19.20
2022-08-05T11:05:10.592Z,19.29
2022-08-05T11:09:16.768Z,19.37
2022-08-05T11:13:40.078Z,19.46
2022-08-05T11:18:30.259Z,19.60
2022-08-05T11:22:44.786Z,19.69
2022-08-05T11:27:51.277Z,19.82
2022-08-05T11:32:27.401Z,20.07
2022-08-05T11:36:47.267Z,20.25
2022-08-05T11:41:35.556Z,20.32
2022-08-05T11:46:14.704Z,20.30
2022-08-05T11:49:51.171Z,20.28
2022-08-05T11:53:54.154Z,20.28
2022-08-05T11:58:10.423Z,20.29
2022-08-05T12:02:29.799Z,20.31
2022-08-05T12:06:35.755Z,20.33
2022-08-05T12:10:45.385Z,20.38
2022-08-05T12:14:48.002Z,20.43
2022-08-05T12:18:53.004Z,20.32
2022-08-05T12:23:10.809Z,20.27
2022-08-05T12:27:25.422Z,20.24
2022-08-05T12:31:33.649Z,20.33
2022-08-05T12:35:48.118Z,20.37
2022-08-05T12:39:52.251Z,20.32
2022-08-05T12:43:58.761Z,19.92
2022-08-05T12:48:26.818Z,19.80
2022-08-05T12:52:33.960Z,19.91
2022-08-05T12:56:43.181Z,19.84
2022-08-05T13:02:03.367Z,20.05
2022-08-05T13:05:11.109Z,20.31
2022-08-05T13:09:28.396Z,20.54
2022-08-05T13:14:04.875Z,20.66
2022-08-05T13:17:55.842Z,20.76
2022-08-05T13:22:01.034Z,20.67
2022-08-05T13:26:05.736Z,20.64
2022-08-05T13:30:34.415Z,20.64
2022-08-05T13:34:32.922Z,20.56
2022-08-05T13:38:36.283Z,20.54
2022-08-05T13:42:40.806Z,20.48
2022-08-05T13:47:04.782Z,20.41
2022-08-05T13:51:09.536Z,20.32
2022-08-05T13:55:11.297Z,20.38
2022-08-05T13:59:32.932Z,20.41
2022-08-05T14:03:34.672Z,20.44
2022-08-05T14:08:00.389Z,20.56
2022-08-05T14:12:18.089Z,20.68
2022-08-05T14:16:27.928Z,20.64
2022-08-05T14:20:30.627Z,20.57
2022-08-05T14:24:32.256Z,20.46
2022-08-05T14:28:34.244Z,20.41
2022-08-05T14:32:37.117Z,20.40
2022-08-05T14:36:40.402Z,20.31
2022-08-05T14:40:41.995Z,20.29
2022-08-05T14:44:45.874Z,20.16
2022-08-05T14:48:49.200Z,20.23
2022-08-05T14:52:57.562Z,20.31
2022-08-05T14:57:00.553Z,20.28
2022-08-05T15:01:16.072Z,20.25
2022-08-05T15:05:18.458Z,20.17
2022-08-05T15:09:54.190Z,20.04
2022-08-05T15:13:45.856Z,20.12
2022-08-05T15:17:52.022Z,20.10
2022-08-05T15:21:59.945Z,20.01
2022-08-05T15:26:03.255Z,19.92
2022-08-05T15:30:05.872Z,19.81
2022-08-05T15:34:18.674Z,19.70
2022-08-05T15:38:35.528Z,19.66
2022-08-05T15:42:53.727Z,19.65
2022-08-05T15:46:56.598Z,19.69
2022-08-05T15:51:01.543Z,19.71
2022-08-05T15:55:10.279Z,19.66
2022-08-05T15:59:21.984Z,19.45
2022-08-05T16:03:24.148Z,19.44
2022-08-05T16:07:25.770Z,19.49
2022-08-05T16:11:42.623Z,19.49
2022-08-05T16:15:45.219Z,19.42
2022-08-05T16:20:04.926Z,19.29
2022-08-05T16:24:12.988Z,19.28
2022-08-05T16:28:32.315Z,19.31
2022-08-05T16:32:34.042Z,19.41
2022-08-05T16:36:36.241Z,19.35
2022-08-05T16:40:48.127Z,19.29
2022-08-05T16:44:57.022Z,19.32
2022-08-05T16:48:59.096Z,19.33
2022-08-05T16:53:01.592Z,19.20
2022-08-05T16:57:22.004Z,19.13
2022-08-05T17:01:24.564Z,19.17
2022-08-05T17:05:26.331Z,19.18
2022-08-05T17:09:30.295Z,19.17
2022-08-05T17:13:42.170Z,19.24
2022-08-05T17:17:44.356Z,19.30
2022-08-05T17:21:51.521Z,19.16
2022-08-05T17:25:53.329Z,19.06
2022-08-05T17:30:00.582Z,18.94
2022-08-05T17:34:03.907Z,18.83
2022-08-05T17:38:09.824Z,18.75
2022-08-05T17:42:19.842Z,18.71
2022-08-05T17:46:23.687Z,18.60
2022-08-05T17:50:29.954Z,18.53
2022-08-05T17:54:33.883Z,18.47
2022-08-05T17:58:37.749Z,18.39
2022-08-05T18:02:39.470Z,18.39
2022-08-05T18:06:41.094Z,18.38
2022-08-05T18:10:47.493Z,18.33
2022-08-05T18:14:51.375Z,18.27
2022-08-05T18:18:53.100Z,18.28
2022-08-05T18:22:57.585Z,18.22
2022-08-05T18:26:59.374Z,18.11
2022-08-05T18:31:01.040Z,18.01
2022-08-05T18:35:02.674Z,17.92
2022-08-05T18:39:09.869Z,17.85
2022-08-05T18:43:31.594Z,17.74
2022-08-05T18:47:39.855Z,17.67
2022-08-05T18:52:04.279Z,17.62
2022-08-05T18:56:11.611Z,17.56
2022-08-05T19:00:20.262Z,17.52
2022-08-05T19:04:24.043Z,17.46
2022-08-05T19:08:30.520Z,17.39
2022-08-05T19:12:33.734Z,17.30
2022-08-05T19:16:47.190Z,17.28
2022-08-05T19:20:52.312Z,17.24
2022-08-05T19:24:56.605Z,17.19
2022-08-05T19:28:58.451Z,17.09
2022-08-05T19:33:00.055Z,17.02
2022-08-05T19:37:05.945Z,16.97
2022-08-05T19:41:08.942Z,16.93
2022-08-05T19:45:14.590Z,16.89
2022-08-05T19:49:17.086Z,16.87
2022-08-05T19:54:04.808Z,16.85
2022-08-05T19:57:47.463Z,16.80
2022-08-05T20:02:03.065Z,16.76
2022-08-05T20:06:15.705Z,16.68
2022-08-05T20:10:19.394Z,16.64
2022-08-05T20:14:24.143Z,16.58
2022-08-05T20:18:33.094Z,16.58
2022-08-05T20:22:37.037Z,16.56
2022-08-05T20:26:43.111Z,16.53
2022-08-05T20:30:44.726Z,16.54
2022-08-05T20:34:46.703Z,16.53
2022-08-05T20:38:54.598Z,16.47
2022-08-05T20:43:00.005Z,16.43
2022-08-05T20:47:06.759Z,16.40
2022-08-05T20:51:09.449Z,16.38
2022-08-05T20:55:54.700Z,16.35
2022-08-05T21:00:10.670Z,16.31
2022-08-05T21:03:54.942Z,16.28
2022-08-05T21:07:56.735Z,16.22
2022-08-05T21:12:10.242Z,16.17
2022-08-05T21:16:14.552Z,16.14
2022-08-05T21:20:32.955Z,16.13
2022-08-05T21:24:35.488Z,16.10
2022-08-05T21:28:39.112Z,16.05
2022-08-05T21:32:40.971Z,16.02
2022-08-05T21:36:46.613Z,15.98
2022-08-05T21:40:50.968Z,15.95
2022-08-05T21:44:52.614Z,15.92
2022-08-05T21:48:56.664Z,15.89
2022-08-05T21:53:04.640Z,15.87
2022-08-05T21:57:33.719Z,15.86
2022-08-05T22:01:35.675Z,15.81
2022-08-05T22:05:48.481Z,15.73
2022-08-05T22:09:50.944Z,15.69
2022-08-05T22:14:06.532Z,15.70
2022-08-05T22:18:14.737Z,15.70
2022-08-05T22:22:16.542Z,15.68
2022-08-05T22:26:49.781Z,15.60
2022-08-05T22:30:55.914Z,15.55
2022-08-05T22:34:58.848Z,15.48
2022-08-05T22:39:09.231Z,15.42
2022-08-05T22:43:11.385Z,15.44
2022-08-05T22:47:15.098Z,15.47
2022-08-05T22:52:04.701Z,15.46
2022-08-05T22:55:57.257Z,15.46
2022-08-05T23:00:02.792Z,15.43
2022-08-05T23:04:04.838Z,15.35
2022-08-05T23:08:09.043Z,15.24
2022-08-05T23:12:13.113Z,15.23
2022-08-05T23:16:14.814Z,15.20
2022-08-05T23:20:37.107Z,15.11
2022-08-05T23:24:39.529Z,15.05
2022-08-05T23:28:50.036Z,14.98
2022-08-05T23:32:52.022Z,14.97
2022-08-05T23:36:53.812Z,14.96
2022-08-05T23:40:56.603Z,14.91
2022-08-05T23:44:58.294Z,14.92
2022-08-05T23:49:15.618Z,14.94
2022-08-05T23:53:22.960Z,14.97
2022-08-05T23:57:28.354Z,14.97
